createdAt,value
2022-11-27T00:00:26.925Z,80.26
2022-11-27T00:05:28.782Z,80.65
2022-11-27T00:10:30.630Z,80.68
2022-11-27T00:15:32.477Z,80.65
2022-11-27T00:20:34.481Z,80.81
2022-11-27T00:25:36.350Z,80.77
2022-11-27T00:30:39.721Z,80.43
2022-11-27T00:35:41.629Z,79.91
2022-11-27T00:40:43.552Z,79.95
2022-11-27T00:45:49.961Z,79.74
2022-11-27T00:50:51.743Z,79.06
2022-11-27T00:55:54.924Z,79.39
2022-11-27T01:00:59.579Z,79.49
2022-11-27T01:06:06.899Z,79.49
2022-11-27T01:11:14.812Z,79.83
2022-11-27T01:16:24.390Z,79.95
2022-11-27T01:21:29.398Z,80.10
2022-11-27T01:26:31.617Z,80.11
2022-11-27T01:31:34.640Z,79.97
2022-11-27T01:36:36.788Z,80.00
2022-11-27T01:41:41.216Z,79.72
2022-11-27T01:46:46.866Z,79.83
2022-11-27T01:51:59.535Z,80.09
2022-11-27T01:57:08.202Z,80.02
2022-11-27T02:02:10.062Z,80.10
2022-11-27T02:07:12.022Z,79.94
2022-11-27T02:12:27.606Z,79.82
2022-11-27T02:18:10.377Z,79.23
2022-11-27T02:23:49.464Z,79.53
2022-11-27T02:29:19.752Z,79.61
2022-11-27T02:34:27.257Z,79.81
2022-11-27T02:39:38.746Z,79.47
2022-11-27T02:44:46.491Z,79.26
2022-11-27T02:49:51.223Z,79.61
2022-11-27T02:54:57.721Z,79.42
2022-11-27T03:00:01.398Z,79.49
2022-11-27T03:05:05.617Z,79.25
2022-11-27T03:10:24.236Z,79.29
2022-11-27T03:15:35.088Z,78.97
2022-11-27T03:20:41.263Z,79.22
2022-11-27T03:25:43.109Z,79.11
2022-11-27T03:30:44.960Z,79.04
2022-11-27T03:35:46.808Z,79.28
2022-11-27T03:41:05.899Z,78.97
2022-11-27T03:46:23.723Z,79.45
2022-11-27T03:51:39.257Z,79.88
2022-11-27T03:56:56.713Z,79.56
2022-11-27T04:01:58.682Z,80.03
2022-11-27T04:07:00.636Z,80.20
2022-11-27T04:12:02.526Z,80.39
2022-11-27T04:17:04.347Z,80.46
2022-11-27T04:22:06.163Z,80.55
2022-11-27T04:27:08.014Z,80.55
2022-11-27T04:32:10.359Z,80.64
2022-11-27T04:37:12.313Z,80.73
2022-11-27T04:42:14.102Z,80.90
2022-11-27T04:47:16.142Z,80.73
2022-11-27T04:52:18.030Z,80.99
2022-11-27T04:57:19.845Z,81.09
2022-11-27T05:02:21.975Z,80.92
2022-11-27T05:07:24.027Z,81.09
2022-11-27T05:12:25.874Z,81.08
2022-11-27T05:17:27.714Z,81.21
2022-11-27T05:22:29.672Z,81.25
2022-11-27T05:27:31.484Z,81.35
2022-11-27T05:32:33.280Z,81.46
2022-11-27T05:37:35.161Z,81.41
2022-11-27T05:42:37.026Z,81.60
2022-11-27T05:47:38.859Z,81.88
2022-11-27T05:52:40.725Z,82.05
2022-11-27T05:57:42.593Z,81.97
2022-11-27T06:02:44.502Z,81.80
2022-11-27T06:07:46.610Z,81.86
2022-11-27T06:12:48.458Z,82.02
2022-11-27T06:17:50.390Z,82.10
2022-11-27T06:22:52.235Z,82.03
2022-11-27T06:27:54.109Z,81.91
2022-11-27T06:32:55.901Z,81.96
2022-11-27T06:37:57.750Z,81.89
2022-11-27T06:42:59.559Z,82.05
2022-11-27T06:48:01.621Z,82.21
2022-11-27T06:53:03.450Z,82.22
2022-11-27T06:58:05.237Z,82.36
2022-11-27T07:03:07.085Z,82.40
2022-11-27T07:08:09.049Z,82.39
2022-11-27T07:13:10.907Z,82.25
2022-11-27T07:18:12.780Z,82.10
2022-11-27T07:23:14.601Z,81.93
2022-11-27T07:28:19.020Z,81.85
2022-11-27T07:33:21.555Z,81.98
2022-11-27T07:38:23.331Z,82.09
2022-11-27T07:43:25.138Z,81.99
2022-11-27T07:48:27.022Z,81.83
2022-11-27T07:53:28.845Z,81.89
2022-11-27T07:58:30.672Z,81.89
2022-11-27T08:03:32.870Z,81.55
2022-11-27T08:08:34.854Z,81.63
2022-11-27T08:13:36.693Z,81.76
2022-11-27T08:18:38.725Z,81.48
2022-11-27T08:23:40.641Z,81.37
2022-11-27T08:28:43.253Z,81.33
2022-11-27T08:33:45.087Z,81.34
2022-11-27T08:38:47.353Z,81.39
2022-11-27T08:43:49.306Z,81.51
2022-11-27T08:48:51.118Z,81.58
2022-11-27T08:53:53.450Z,81.50
2022-11-27T08:58:56.058Z,81.68
2022-11-27T09:03:58.687Z,81.42
2022-11-27T09:09:01.842Z,81.12
2022-11-27T09:14:05.751Z,81.47
2022-11-27T09:19:07.529Z,81.35
2022-11-27T09:24:10.006Z,80.77
2022-11-27T09:29:11.840Z,80.53
2022-11-27T09:34:14.691Z,80.46
2022-11-27T09:39:17.043Z,81.01
2022-11-27T09:44:40.929Z,81.00
2022-11-27T09:49:50.482Z,80.61
2022-11-27T09:55:00.525Z,80.74
2022-11-27T10:00:17.010Z,80.12
2022-11-27T10:05:26.881Z,80.40
2022-11-27T10:11:04.144Z,79.74
2022-11-27T10:16:34.428Z,79.95
2022-11-27T10:21:55.159Z,80.05
2022-11-27T10:26:59.331Z,79.18
2022-11-27T10:32:54.545Z,79.17
2022-11-27T10:38:11.130Z,78.43
2022-11-27T10:43:25.223Z,78.69
2022-11-27T10:48:29.529Z,78.24
2022-11-27T10:53:37.329Z,78.13
2022-11-27T10:59:04.634Z,77.11
2022-11-27T11:04:31.290Z,77.50
2022-11-27T11:09:35.121Z,77.20
2022-11-27T11:14:36.909Z,76.51
2022-11-27T11:19:39.151Z,76.93
2022-11-27T11:24:46.888Z,76.81
2022-11-27T11:30:03.620Z,76.93
2022-11-27T11:35:23.384Z,77.44
2022-11-27T11:40:30.322Z,77.08
2022-11-27T11:45:34.961Z,76.59
2022-11-27T11:50:52.619Z,77.03
2022-11-27T11:56:09.780Z,76.09
2022-11-27T12:01:27.736Z,75.24
2022-11-27T12:06:42.718Z,76.96
2022-11-27T12:11:48.453Z,76.06
2022-11-27T12:17:03.623Z,76.61
2022-11-27T12:22:30.292Z,76.81
2022-11-27T12:28:19.374Z,75.24
2022-11-27T12:34:00.601Z,76.34
2022-11-27T12:39:31.676Z,76.33
2022-11-27T12:45:00.520Z,75.39
2022-11-27T12:50:28.271Z,74.71
2022-11-27T12:55:33.937Z,72.81
2022-11-27T13:00:40.977Z,74.45
2022-11-27T13:06:06.812Z,74.40
2022-11-27T13:11:13.843Z,73.88
2022-11-27T13:16:27.577Z,72.72
2022-11-27T13:21:33.752Z,74.12
2022-11-27T13:27:01.066Z,74.71
2022-11-27T13:32:05.003Z,75.39
2022-11-27T13:37:09.324Z,75.04
2022-11-27T13:42:11.069Z,74.95
2022-11-27T13:47:17.143Z,74.85
2022-11-27T13:52:21.272Z,74.62
2022-11-27T13:57:24.103Z,74.87
2022-11-27T14:02:40.372Z,74.85
2022-11-27T14:07:47.461Z,75.10
2022-11-27T14:12:58.410Z,75.35
2022-11-27T14:18:17.166Z,75.37
2022-11-27T14:23:49.213Z,75.18
2022-11-27T14:29:00.759Z,75.53
2022-11-27T14:34:23.412Z,75.59
2022-11-27T14:39:35.589Z,76.00
2022-11-27T14:44:37.531Z,76.31
2022-11-27T14:49:42.224Z,76.28
2022-11-27T14:54:44.996Z,76.29
2022-11-27T14:59:46.787Z,76.62
2022-11-27T15:04:48.640Z,76.82
2022-11-27T15:09:54.306Z,77.12
2022-11-27T15:15:04.935Z,77.43
2022-11-27T15:20:15.535Z,77.49
2022-11-27T15:25:41.243Z,77.68
2022-11-27T15:30:46.414Z,77.76
2022-11-27T15:35:52.646Z,78.00
2022-11-27T15:41:00.924Z,78.03
2022-11-27T15:46:06.367Z,78.28
2022-11-27T15:51:08.294Z,78.52
2022-11-27T15:56:10.124Z,78.65
2022-11-27T16:01:12.035Z,78.85
2022-11-27T16:06:13.878Z,79.00
2022-11-27T16:11:19.594Z,78.98
2022-11-27T16:16:22.072Z,78.95
2022-11-27T16:21:29.253Z,79.03
2022-11-27T16:26:32.566Z,78.95
2022-11-27T16:31:34.956Z,78.96
2022-11-27T16:36:42.353Z,78.96
2022-11-27T16:41:44.799Z,79.10
2022-11-27T16:46:48.831Z,79.18
2022-11-27T16:51:50.963Z,79.23
2022-11-27T16:56:53.658Z,79.19
2022-11-27T17:01:56.269Z,79.21
2022-11-27T17:06:58.105Z,79.48
2022-11-27T17:11:59.980Z,79.60
2022-11-27T17:17:03.193Z,79.80
2022-11-27T17:22:05.239Z,79.73
2022-11-27T17:27:09.881Z,79.76
2022-11-27T17:32:13.142Z,79.85
2022-11-27T17:37:15.309Z,79.85
2022-11-27T17:42:22.416Z,79.95
2022-11-27T17:47:24.876Z,79.72
2022-11-27T17:52:26.947Z,79.91
2022-11-27T17:57:28.793Z,80.17
2022-11-27T18:02:31.551Z,80.12
2022-11-27T18:07:33.561Z,80.36
2022-11-27T18:12:35.521Z,80.30
2022-11-27T18:17:37.851Z,80.19
2022-11-27T18:22:39.706Z,80.19
2022-11-27T18:27:41.674Z,80.32
2022-11-27T18:32:43.497Z,80.13
2022-11-27T18:37:45.362Z,80.18
2022-11-27T18:42:47.222Z,80.06
2022-11-27T18:47:49.085Z,80.18
2022-11-27T18:52:50.892Z,80.17
2022-11-27T18:57:53.356Z,80.16
2022-11-27T19:02:56.205Z,80.15
2022-11-27T19:07:59.723Z,80.08
2022-11-27T19:13:01.615Z,80.28
2022-11-27T19:18:03.619Z,80.32
2022-11-27T19:23:06.261Z,80.49
2022-11-27T19:28:11.125Z,80.59
2022-11-27T19:33:13.177Z,80.68
2022-11-27T19:38:15.004Z,80.65
2022-11-27T19:43:17.152Z,80.89
2022-11-27T19:48:23.109Z,81.14
2022-11-27T19:53:26.839Z,81.20
2022-11-27T19:58:33.228Z,80.95
2022-11-27T20:03:35.472Z,80.98
2022-11-27T20:08:38.787Z,81.21
2022-11-27T20:13:41.061Z,81.84
2022-11-27T20:18:43.623Z,82.16
2022-11-27T20:23:47.031Z,82.11
2022-11-27T20:28:50.089Z,81.97
2022-11-27T20:33:55.654Z,82.08
2022-11-27T20:38:58.601Z,82.28
2022-11-27T20:44:01.943Z,82.02
2022-11-27T20:49:05.197Z,81.82
2022-11-27T20:54:07.300Z,81.82
2022-11-27T20:59:09.751Z,81.85
2022-11-27T21:04:22.284Z,81.91
2022-11-27T21:09:24.878Z,82.49
2022-11-27T21:14:26.737Z,82.63
2022-11-27T21:19:28.689Z,82.40
2022-11-27T21:24:31.086Z,82.19
2022-11-27T21:29:33.140Z,82.29
2022-11-27T21:34:35.199Z,82.55
2022-11-27T21:39:37.461Z,82.58
2022-11-27T21:44:42.366Z,82.88
2022-11-27T21:49:45.117Z,83.14
2022-11-27T21:54:47.698Z,83.49
2022-11-27T21:59:50.906Z,83.33
2022-11-27T22:04:52.774Z,83.45
2022-11-27T22:09:57.418Z,83.45
2022-11-27T22:15:05.781Z,83.44
2022-11-27T22:20:08.158Z,83.54
2022-11-27T22:25:10.207Z,83.67
2022-11-27T22:30:12.506Z,83.72
2022-11-27T22:35:14.463Z,83.94
2022-11-27T22:40:16.395Z,84.63
2022-11-27T22:45:18.794Z,84.25
2022-11-27T22:50:20.567Z,84.19
2022-11-27T22:55:22.995Z,84.34
2022-11-27T23:00:24.857Z,84.52
2022-11-27T23:05:26.697Z,84.57
2022-11-27T23:10:28.509Z,84.91
2022-11-27T23:15:30.828Z,84.97
2022-11-27T23:20:33.153Z,84.95
2022-11-27T23:25:35.045Z,85.17
2022-11-27T23:30:36.944Z,85.35
2022-11-27T23:35:38.798Z,85.73
2022-11-27T23:40:40.709Z,85.82
2022-11-27T23:45:42.589Z,85.42
2022-11-27T23:50:44.510Z,85.35
2022-11-27T23:55:46.365Z,85.17
